createdAt,value
2022-11-26T00:01:53.493Z,83.26
2022-11-26T00:04:58.874Z,83.26
2022-11-26T00:08:01.456Z,83.27
2022-11-26T00:11:06.911Z,83.29
2022-11-26T00:14:15.725Z,83.31
2022-11-26T00:17:18.798Z,83.32
2022-11-26T00:20:24.181Z,83.31
2022-11-26T00:23:27.782Z,83.27
2022-11-26T00:26:29.723Z,83.22
2022-11-26T00:29:31.332Z,83.16
2022-11-26T00:32:32.860Z,83.08
2022-11-26T00:35:34.584Z,83.04
2022-11-26T00:38:36.214Z,83.00
2022-11-26T00:41:39.043Z,83.00
2022-11-26T00:44:40.830Z,83.00
2022-11-26T00:47:42.691Z,82.97
2022-11-26T00:50:50.197Z,82.91
2022-11-26T00:53:59.789Z,82.89
2022-11-26T00:57:01.416Z,82.87
2022-11-26T01:00:17.294Z,82.85
2022-11-26T01:03:19.148Z,82.87
2022-11-26T01:06:29.760Z,82.89
2022-11-26T01:09:31.575Z,82.89
2022-11-26T01:12:33.100Z,82.89
2022-11-26T01:15:34.756Z,82.89
2022-11-26T01:18:36.405Z,82.87
2022-11-26T01:21:38.536Z,82.86
2022-11-26T01:24:40.358Z,82.84
2022-11-26T01:27:42.196Z,82.83
2022-11-26T01:30:44.573Z,82.84
2022-11-26T01:33:46.087Z,82.82
2022-11-26T01:36:47.690Z,82.82
2022-11-26T01:39:49.252Z,82.79
2022-11-26T01:42:55.294Z,82.76
2022-11-26T01:45:57.163Z,82.74
2022-11-26T01:49:23.768Z,82.73
2022-11-26T01:52:25.810Z,82.72
2022-11-26T01:55:51.154Z,82.71
2022-11-26T01:59:19.802Z,82.66
2022-11-26T02:02:26.748Z,82.63
2022-11-26T02:05:33.803Z,82.58
2022-11-26T02:08:36.008Z,82.51
2022-11-26T02:11:37.998Z,82.46
2022-11-26T02:14:43.087Z,82.38
2022-11-26T02:17:52.134Z,82.29
2022-11-26T02:21:12.157Z,82.16
2022-11-26T02:24:51.004Z,81.95
2022-11-26T02:28:10.994Z,81.58
2022-11-26T02:31:21.438Z,81.42
2022-11-26T02:34:38.209Z,81.31
2022-11-26T02:37:47.701Z,81.30
2022-11-26T02:40:50.245Z,81.23
2022-11-26T02:43:51.951Z,81.08
2022-11-26T02:47:11.063Z,81.03
2022-11-26T02:50:19.176Z,81.08
2022-11-26T02:53:22.985Z,81.17
2022-11-26T02:56:26.980Z,81.18
2022-11-26T02:59:29.589Z,81.12
2022-11-26T03:02:33.427Z,81.15
2022-11-26T03:05:38.439Z,81.07
2022-11-26T03:08:40.413Z,81.02
2022-11-26T03:11:42.547Z,80.93
2022-11-26T03:14:44.175Z,80.76
2022-11-26T03:17:45.875Z,80.81
2022-11-26T03:20:50.068Z,80.86
2022-11-26T03:23:54.486Z,80.91
2022-11-26T03:26:55.962Z,80.91
2022-11-26T03:29:57.613Z,80.93
2022-11-26T03:32:59.207Z,80.89
2022-11-26T03:36:00.845Z,80.85
2022-11-26T03:39:02.913Z,80.77
2022-11-26T03:42:04.608Z,80.67
2022-11-26T03:45:06.585Z,80.59
2022-11-26T03:48:08.283Z,80.50
2022-11-26T03:51:09.864Z,80.46
2022-11-26T03:54:11.468Z,80.42
2022-11-26T03:57:13.110Z,80.38
2022-11-26T04:00:15.039Z,80.36
2022-11-26T04:03:16.805Z,80.38
2022-11-26T04:06:18.519Z,80.37
2022-11-26T04:09:20.162Z,80.34
2022-11-26T04:12:21.932Z,80.27
2022-11-26T04:15:23.526Z,80.17
2022-11-26T04:18:25.126Z,80.13
2022-11-26T04:21:26.683Z,80.12
2022-11-26T04:24:28.226Z,80.08
2022-11-26T04:27:29.828Z,80.05
2022-11-26T04:30:31.518Z,80.00
2022-11-26T04:33:33.087Z,79.95
2022-11-26T04:36:34.687Z,79.93
2022-11-26T04:39:36.217Z,79.91
2022-11-26T04:42:37.850Z,79.92
2022-11-26T04:45:39.566Z,80.08
2022-11-26T04:48:41.242Z,80.17
2022-11-26T04:51:42.879Z,80.20
2022-11-26T04:54:44.667Z,80.21
2022-11-26T04:57:47.904Z,80.29
2022-11-26T05:00:51.232Z,80.35
2022-11-26T05:03:53.150Z,80.38
2022-11-26T05:06:55.279Z,80.42
2022-11-26T05:09:56.826Z,80.47
2022-11-26T05:12:58.421Z,80.51
2022-11-26T05:15:59.990Z,80.56
2022-11-26T05:19:01.669Z,80.59
2022-11-26T05:22:03.287Z,80.65
2022-11-26T05:25:05.273Z,80.64
2022-11-26T05:28:06.860Z,80.67
2022-11-26T05:31:08.469Z,80.72
2022-11-26T05:34:10.039Z,80.75
2022-11-26T05:37:11.615Z,80.77
2022-11-26T05:40:13.442Z,80.78
2022-11-26T05:43:15.057Z,80.85
2022-11-26T05:46:17.537Z,80.94
2022-11-26T05:49:19.139Z,81.06
2022-11-26T05:52:21.075Z,81.17
2022-11-26T05:55:22.683Z,81.28
2022-11-26T05:58:24.698Z,81.35
2022-11-26T06:01:26.310Z,81.42
2022-11-26T06:04:28.485Z,81.45
2022-11-26T06:07:30.357Z,81.52
2022-11-26T06:10:32.157Z,81.55
2022-11-26T06:13:33.712Z,81.55
2022-11-26T06:16:35.706Z,81.57
2022-11-26T06:19:37.689Z,81.59
2022-11-26T06:22:40.914Z,81.61
2022-11-26T06:25:42.538Z,81.64
2022-11-26T06:28:44.142Z,81.68
2022-11-26T06:31:45.834Z,81.68
2022-11-26T06:34:51.187Z,81.74
2022-11-26T06:37:55.470Z,81.78
2022-11-26T06:41:04.847Z,81.83
2022-11-26T06:44:06.589Z,81.86
2022-11-26T06:47:12.098Z,81.89
2022-11-26T06:50:14.873Z,81.91
2022-11-26T06:53:16.509Z,81.92
2022-11-26T06:56:19.189Z,81.93
2022-11-26T06:59:21.484Z,81.92
2022-11-26T07:02:23.316Z,81.90
2022-11-26T07:05:25.098Z,81.90
2022-11-26T07:08:26.801Z,81.88
2022-11-26T07:11:28.529Z,81.87
2022-11-26T07:14:30.120Z,81.87
2022-11-26T07:17:31.724Z,81.85
2022-11-26T07:20:35.240Z,81.83
2022-11-26T07:23:38.080Z,81.86
2022-11-26T07:26:39.770Z,81.88
2022-11-26T07:29:41.409Z,81.93
2022-11-26T07:32:43.064Z,82.00
2022-11-26T07:35:51.072Z,82.05
2022-11-26T07:38:54.152Z,82.13
2022-11-26T07:41:55.931Z,82.20
2022-11-26T07:44:57.653Z,82.30
2022-11-26T07:47:59.229Z,82.40
2022-11-26T07:51:01.642Z,82.49
2022-11-26T07:54:04.501Z,82.59
2022-11-26T07:57:06.142Z,82.64
2022-11-26T08:00:08.345Z,82.77
2022-11-26T08:03:13.458Z,82.98
2022-11-26T08:06:21.167Z,83.15
2022-11-26T08:09:22.853Z,83.30
2022-11-26T08:12:24.589Z,83.42
2022-11-26T08:15:26.319Z,83.53
2022-11-26T08:18:27.853Z,83.63
2022-11-26T08:21:29.629Z,83.74
2022-11-26T08:24:31.250Z,83.86
2022-11-26T08:27:32.908Z,84.01
2022-11-26T08:30:34.525Z,84.16
2022-11-26T08:33:36.528Z,84.31
2022-11-26T08:36:38.163Z,84.46
2022-11-26T08:39:41.508Z,84.58
2022-11-26T08:42:49.244Z,84.70
2022-11-26T08:45:56.397Z,84.81
2022-11-26T08:48:58.141Z,84.88
2022-11-26T08:51:59.651Z,84.90
2022-11-26T08:55:01.292Z,84.89
2022-11-26T08:58:02.858Z,84.82
2022-11-26T09:01:09.678Z,84.83
2022-11-26T09:04:11.416Z,84.80
2022-11-26T09:07:13.286Z,84.78
2022-11-26T09:10:14.972Z,84.78
2022-11-26T09:13:20.877Z,84.76
2022-11-26T09:16:23.961Z,84.76
2022-11-26T09:19:27.351Z,84.74
2022-11-26T09:22:28.924Z,84.74
2022-11-26T09:25:30.509Z,84.72
2022-11-26T09:28:32.095Z,84.70
2022-11-26T09:31:33.802Z,84.70
2022-11-26T09:34:36.517Z,84.73
2022-11-26T09:37:38.421Z,84.76
2022-11-26T09:40:48.913Z,84.74
2022-11-26T09:43:56.787Z,84.75
2022-11-26T09:47:22.136Z,84.75
2022-11-26T09:50:31.546Z,84.75
2022-11-26T09:53:42.421Z,84.78
2022-11-26T09:56:44.123Z,84.82
2022-11-26T09:59:49.900Z,84.85
2022-11-26T10:02:53.786Z,84.90
2022-11-26T10:06:07.868Z,84.95
2022-11-26T10:09:28.045Z,84.99
2022-11-26T10:13:11.256Z,85.03
2022-11-26T10:16:19.997Z,85.08
2022-11-26T10:19:57.929Z,85.11
2022-11-26T10:23:05.689Z,85.17
2022-11-26T10:26:15.369Z,85.19
2022-11-26T10:29:32.996Z,85.23
2022-11-26T10:32:39.426Z,85.28
2022-11-26T10:35:44.229Z,85.29
2022-11-26T10:38:45.933Z,85.31
2022-11-26T10:41:47.790Z,85.33
2022-11-26T10:44:53.777Z,85.33
2022-11-26T10:48:16.389Z,85.38
2022-11-26T10:51:32.471Z,85.46
2022-11-26T10:54:38.961Z,85.47
2022-11-26T10:57:47.264Z,85.49
2022-11-26T11:00:49.113Z,85.52
2022-11-26T11:04:09.530Z,85.57
2022-11-26T11:07:30.793Z,85.63
2022-11-26T11:10:32.685Z,85.63
2022-11-26T11:13:46.414Z,85.64
2022-11-26T11:16:48.507Z,85.68
2022-11-26T11:19:50.506Z,85.68
2022-11-26T11:23:03.025Z,85.70
2022-11-26T11:26:06.781Z,85.71
2022-11-26T11:29:25.569Z,85.73
2022-11-26T11:32:33.903Z,85.70
2022-11-26T11:35:35.708Z,85.68
2022-11-26T11:38:52.262Z,85.69
2022-11-26T11:41:54.239Z,85.72
2022-11-26T11:44:58.515Z,85.74
2022-11-26T11:48:16.709Z,85.77
2022-11-26T11:51:44.015Z,85.85
2022-11-26T11:55:26.621Z,85.91
2022-11-26T11:58:52.723Z,85.97
2022-11-26T12:02:09.435Z,86.02
2022-11-26T12:05:29.728Z,86.03
2022-11-26T12:08:56.415Z,86.05
2022-11-26T12:12:24.280Z,86.13
2022-11-26T12:15:29.255Z,86.18
2022-11-26T12:18:41.109Z,86.21
2022-11-26T12:21:53.810Z,86.29
2022-11-26T12:25:00.677Z,86.32
2022-11-26T12:28:27.581Z,86.32
2022-11-26T12:31:42.714Z,86.32
2022-11-26T12:34:49.325Z,86.36
2022-11-26T12:37:57.481Z,86.38
2022-11-26T12:41:10.406Z,86.39
2022-11-26T12:44:30.848Z,86.42
2022-11-26T12:47:37.558Z,86.44
2022-11-26T12:50:47.137Z,86.46
2022-11-26T12:54:13.382Z,86.52
2022-11-26T12:57:22.610Z,86.55
2022-11-26T13:00:35.526Z,86.56
2022-11-26T13:03:37.794Z,86.62
2022-11-26T13:07:13.767Z,86.66
2022-11-26T13:10:43.353Z,86.71
2022-11-26T13:14:10.070Z,86.69
2022-11-26T13:17:14.275Z,86.67
2022-11-26T13:20:24.963Z,86.62
2022-11-26T13:23:44.832Z,86.59
2022-11-26T13:27:17.029Z,86.54
2022-11-26T13:30:52.998Z,86.50
2022-11-26T13:34:10.430Z,86.49
2022-11-26T13:37:37.457Z,86.50
2022-11-26T13:41:07.088Z,86.50
2022-11-26T13:44:50.637Z,86.50
2022-11-26T13:48:03.194Z,86.49
2022-11-26T13:51:19.060Z,86.45
2022-11-26T13:54:35.589Z,86.46
2022-11-26T13:57:45.103Z,86.44
2022-11-26T14:00:46.934Z,86.42
2022-11-26T14:03:50.089Z,86.42
2022-11-26T14:07:04.005Z,86.41
2022-11-26T14:10:28.137Z,86.38
2022-11-26T14:13:29.980Z,86.37
2022-11-26T14:17:00.686Z,86.33
2022-11-26T14:20:03.862Z,86.29
2022-11-26T14:23:43.554Z,86.26
2022-11-26T14:26:45.180Z,86.24
2022-11-26T14:30:09.408Z,86.21
2022-11-26T14:33:16.933Z,86.20
2022-11-26T14:36:24.792Z,86.17
2022-11-26T14:39:28.247Z,86.16
2022-11-26T14:42:29.910Z,86.14
2022-11-26T14:45:31.688Z,86.13
2022-11-26T14:48:40.130Z,86.11
2022-11-26T14:51:45.326Z,86.05
2022-11-26T14:54:50.861Z,86.04
2022-11-26T14:57:58.040Z,86.00
2022-11-26T15:01:18.786Z,85.98
2022-11-26T15:04:27.919Z,85.99
2022-11-26T15:07:30.915Z,85.98
2022-11-26T15:10:34.209Z,85.98
2022-11-26T15:13:42.263Z,85.96
2022-11-26T15:16:44.591Z,85.99
2022-11-26T15:19:46.710Z,86.03
2022-11-26T15:22:54.440Z,86.05
2022-11-26T15:25:57.583Z,86.01
2022-11-26T15:28:59.456Z,86.01
2022-11-26T15:32:01.743Z,85.93
2022-11-26T15:35:03.844Z,85.88
2022-11-26T15:38:12.627Z,85.86
2022-11-26T15:41:18.636Z,85.83
2022-11-26T15:44:24.431Z,85.75
2022-11-26T15:47:27.678Z,85.69
2022-11-26T15:50:32.754Z,85.63
2022-11-26T15:53:38.542Z,85.59
2022-11-26T15:56:40.142Z,85.54
2022-11-26T15:59:46.141Z,85.49
2022-11-26T16:02:47.863Z,85.45
2022-11-26T16:05:55.569Z,85.40
2022-11-26T16:09:01.919Z,85.37
2022-11-26T16:12:04.195Z,85.34
2022-11-26T16:15:26.270Z,85.30
2022-11-26T16:18:35.828Z,85.28
2022-11-26T16:21:37.527Z,85.27
2022-11-26T16:24:43.481Z,85.22
2022-11-26T16:28:05.068Z,85.17
2022-11-26T16:31:06.686Z,85.12
2022-11-26T16:34:09.603Z,85.06
2022-11-26T16:37:21.928Z,85.02
2022-11-26T16:40:24.960Z,84.99
2022-11-26T16:43:28.018Z,84.99
2022-11-26T16:46:35.328Z,84.94
2022-11-26T16:49:36.879Z,84.85
2022-11-26T16:52:38.592Z,84.80
2022-11-26T16:55:40.297Z,84.75
2022-11-26T16:58:42.234Z,84.71
2022-11-26T17:01:48.689Z,84.68
2022-11-26T17:04:55.471Z,84.63
2022-11-26T17:08:00.534Z,84.60
2022-11-26T17:11:02.175Z,84.57
2022-11-26T17:14:03.716Z,84.55
2022-11-26T17:17:05.357Z,84.52
2022-11-26T17:20:24.962Z,84.50
2022-11-26T17:23:27.533Z,84.48
2022-11-26T17:26:29.260Z,84.43
2022-11-26T17:29:37.117Z,84.37
2022-11-26T17:32:42.928Z,84.33
2022-11-26T17:35:45.756Z,84.27
2022-11-26T17:38:47.994Z,84.18
2022-11-26T17:41:49.598Z,84.10
2022-11-26T17:44:52.913Z,84.10
2022-11-26T17:47:54.763Z,84.05
2022-11-26T17:50:56.396Z,83.97
2022-11-26T17:53:57.987Z,83.93
2022-11-26T17:57:00.714Z,83.86
2022-11-26T18:00:04.194Z,83.81
2022-11-26T18:03:07.095Z,83.78
2022-11-26T18:06:15.918Z,83.75
2022-11-26T18:09:17.560Z,83.74
2022-11-26T18:12:25.459Z,83.76
2022-11-26T18:15:34.794Z,83.74
2022-11-26T18:18:36.389Z,83.74
2022-11-26T18:21:38.824Z,83.75
2022-11-26T18:24:40.453Z,83.72
2022-11-26T18:27:42.103Z,83.74
2022-11-26T18:30:44.202Z,83.74
2022-11-26T18:33:45.820Z,83.72
2022-11-26T18:36:53.369Z,83.74
2022-11-26T18:39:55.481Z,83.72
2022-11-26T18:42:57.122Z,83.68
2022-11-26T18:46:05.871Z,83.66
2022-11-26T18:49:07.513Z,83.62
2022-11-26T18:52:09.414Z,83.59
2022-11-26T18:55:13.325Z,83.56
2022-11-26T18:58:16.846Z,83.52
2022-11-26T19:01:22.337Z,83.49
2022-11-26T19:04:23.947Z,83.48
2022-11-26T19:07:25.584Z,83.46
2022-11-26T19:10:27.326Z,83.45
2022-11-26T19:13:28.889Z,83.37
2022-11-26T19:16:30.471Z,83.30
2022-11-26T19:19:32.525Z,83.24
2022-11-26T19:22:34.431Z,83.17
2022-11-26T19:25:36.400Z,83.13
2022-11-26T19:28:38.784Z,83.11
2022-11-26T19:31:40.503Z,83.07
2022-11-26T19:34:42.223Z,83.03
2022-11-26T19:37:43.862Z,82.99
2022-11-26T19:40:45.543Z,82.92
2022-11-26T19:43:47.145Z,82.88
2022-11-26T19:46:49.311Z,82.86
2022-11-26T19:49:51.050Z,82.82
2022-11-26T19:52:52.722Z,82.74
2022-11-26T19:56:00.427Z,82.70
2022-11-26T19:59:03.103Z,82.64
2022-11-26T20:02:04.804Z,82.51
2022-11-26T20:05:15.625Z,82.40
2022-11-26T20:08:17.719Z,82.33
2022-11-26T20:11:19.571Z,82.28
2022-11-26T20:14:21.243Z,82.20
2022-11-26T20:17:22.899Z,82.13
2022-11-26T20:20:24.541Z,82.10
2022-11-26T20:23:27.161Z,82.06
2022-11-26T20:26:31.770Z,82.05
2022-11-26T20:29:33.507Z,81.99
2022-11-26T20:32:36.288Z,81.97
2022-11-26T20:35:42.106Z,81.96
2022-11-26T20:38:43.751Z,81.95
2022-11-26T20:41:46.098Z,81.93
2022-11-26T20:44:47.718Z,81.96
2022-11-26T20:47:49.322Z,81.94
2022-11-26T20:50:50.927Z,81.90
2022-11-26T20:53:53.091Z,81.85
2022-11-26T20:56:54.753Z,81.77
2022-11-26T20:59:56.347Z,81.67
2022-11-26T21:03:00.132Z,81.62
2022-11-26T21:06:02.650Z,81.57
2022-11-26T21:09:08.006Z,81.51
2022-11-26T21:12:09.593Z,81.43
2022-11-26T21:15:11.324Z,81.37
2022-11-26T21:18:13.430Z,81.33
2022-11-26T21:21:16.564Z,81.32
2022-11-26T21:24:19.730Z,81.38
2022-11-26T21:27:22.682Z,81.39
2022-11-26T21:30:24.555Z,81.38
2022-11-26T21:33:26.452Z,81.34
2022-11-26T21:36:30.148Z,81.24
2022-11-26T21:39:31.939Z,81.17
2022-11-26T21:42:33.632Z,81.13
2022-11-26T21:45:35.519Z,81.15
2022-11-26T21:48:37.165Z,81.16
2022-11-26T21:51:41.526Z,81.17
2022-11-26T21:54:43.308Z,81.16
2022-11-26T21:57:45.060Z,81.15
2022-11-26T22:00:46.790Z,81.16
2022-11-26T22:03:50.929Z,81.17
2022-11-26T22:06:54.264Z,81.10
2022-11-26T22:09:56.307Z,81.14
2022-11-26T22:12:57.964Z,81.15
2022-11-26T22:15:59.623Z,81.21
2022-11-26T22:19:02.817Z,81.28
2022-11-26T22:22:07.679Z,81.31
2022-11-26T22:25:09.252Z,81.30
2022-11-26T22:28:12.437Z,81.30
2022-11-26T22:31:16.272Z,81.35
2022-11-26T22:34:21.351Z,81.37
2022-11-26T22:37:22.871Z,81.34
2022-11-26T22:40:24.589Z,81.34
2022-11-26T22:43:26.159Z,81.36
2022-11-26T22:46:28.295Z,81.39
2022-11-26T22:49:29.941Z,81.40
2022-11-26T22:52:31.603Z,81.43
2022-11-26T22:55:33.171Z,81.41
2022-11-26T22:58:35.249Z,81.42
2022-11-26T23:01:37.119Z,81.45
2022-11-26T23:04:38.789Z,81.45
2022-11-26T23:07:40.456Z,81.45
2022-11-26T23:10:42.677Z,81.44
2022-11-26T23:13:45.591Z,81.42
2022-11-26T23:16:47.243Z,81.41
2022-11-26T23:19:48.865Z,81.44
2022-11-26T23:22:50.506Z,81.44
2022-11-26T23:25:52.073Z,81.46
2022-11-26T23:28:57.700Z,81.41
2022-11-26T23:31:59.307Z,81.38
2022-11-26T23:35:01.350Z,81.40
2022-11-26T23:38:02.956Z,81.42
2022-11-26T23:41:05.743Z,81.45
2022-11-26T23:44:07.365Z,81.44
2022-11-26T23:47:09.339Z,81.44
2022-11-26T23:50:11.342Z,81.41
2022-11-26T23:53:12.950Z,81.38
2022-11-26T23:56:19.506Z,81.34
2022-11-26T23:59:21.079Z,81.32
